Time;durP1;ratioP1;P1;durP2;ratioP2;P2;SDS_P1;SDS_P2;PMS_P1;PMS_P2;Temp;Humidity;BMP_temperature;BMP_pressure;BME280_temperature;BME280_humidity;BME280_pressure;Samples;Min_cycle;Max_cycle;Signal;HPM_P1;HPM_P2
2023/05/20 00:03:16;;;;;;;1.00;0.60;;;;;;;16.81;45.58;100700.09;10301097;28;20051;-69
2023/05/20 00:08:18;;;;;;;2.30;0.70;;;;;;;16.72;45.88;100702.16;10315805;28;20054;-70
2023/05/20 00:13:20;;;;;;;1.65;0.80;;;;;;;16.66;46.24;100705.69;10294571;28;20127;-70
2023/05/20 00:18:21;;;;;;;1.40;0.77;;;;;;;16.59;46.48;100694.84;10299134;28;20564;-71
2023/05/20 00:23:23;;;;;;;2.30;0.65;;;;;;;16.59;46.85;100696.72;10299817;28;20042;-70
2023/05/20 00:28:25;;;;;;;2.05;0.95;;;;;;;16.60;46.60;100691.06;10297278;28;20427;-69
2023/05/20 00:33:26;;;;;;;1.95;0.80;;;;;;;16.63;47.09;100690.69;10312190;28;20441;-70
2023/05/20 00:38:28;;;;;;;1.77;0.65;;;;;;;16.60;47.27;100692.97;10329499;28;20054;-71
2023/05/20 00:43:29;;;;;;;3.92;0.80;;;;;;;16.61;47.27;100689.22;10323944;28;20102;-70
2023/05/20 00:48:40;;;;;;;3.20;0.95;;;;;;;16.52;47.73;100676.88;10338650;28;20050;-71
2023/05/20 00:53:42;;;;;;;4.63;1.00;;;;;;;16.46;47.90;100689.41;10341019;28;20096;-70
2023/05/20 00:58:44;;;;;;;1.48;0.60;;;;;;;16.45;47.82;100679.59;10339112;28;20057;-70
2023/05/20 01:03:45;;;;;;;1.55;0.90;;;;;;;16.42;48.18;100669.16;10340101;28;20084;-70
2023/05/20 01:08:48;;;;;;;1.75;0.77;;;;;;;16.34;48.24;100675.59;10346158;28;20054;-70
2023/05/20 01:13:56;;;;;;;2.67;1.42;;;;;;;16.28;48.66;100671.00;10345181;28;20058;-69
2023/05/20 01:19:03;;;;;;;2.47;0.70;;;;;;;16.20;48.70;100671.19;10342929;28;20050;-70
2023/05/20 01:24:05;;;;;;;4.05;0.98;;;;;;;16.04;49.07;100665.09;10343986;28;20058;-70
2023/05/20 01:29:06;;;;;;;2.42;1.00;;;;;;;15.95;49.62;100668.19;10340521;28;20073;-70
2023/05/20 01:34:08;;;;;;;2.28;0.70;;;;;;;15.83;49.99;100668.78;10359856;28;20056;-71
2023/05/20 01:39:12;;;;;;;1.98;0.90;;;;;;;15.83;50.03;100666.06;10379782;28;20053;-71
2023/05/20 01:44:14;;;;;;;4.25;1.67;;;;;;;15.76;49.97;100665.22;10384454;28;20051;-72
2023/05/20 01:49:15;;;;;;;3.10;0.85;;;;;;;15.67;50.61;100650.13;10377038;28;20052;-70
2023/05/20 01:54:17;;;;;;;4.40;1.15;;;;;;;15.63;50.77;100649.69;10382694;28;20058;-69
2023/05/20 01:59:18;;;;;;;1.63;0.82;;;;;;;15.63;51.10;100646.16;10384059;28;20046;-70
2023/05/20 02:04:21;;;;;;;1.83;1.00;;;;;;;15.61;51.14;100642.81;10381913;28;20527;-71
2023/05/20 02:09:22;;;;;;;1.45;0.85;;;;;;;15.61;51.40;100640.09;10381031;28;20481;-70
2023/05/20 02:14:24;;;;;;;1.42;1.08;;;;;;;15.62;51.41;100625.50;10365923;28;20041;-70
2023/05/20 02:19:26;;;;;;;3.33;1.05;;;;;;;15.59;51.64;100629.47;10369920;28;20049;-70
2023/05/20 02:24:27;;;;;;;2.63;0.73;;;;;;;15.64;51.71;100626.16;10384848;28;20112;-70
2023/05/20 02:29:29;;;;;;;1.48;0.90;;;;;;;15.63;51.96;100630.72;10382722;28;20119;-70
2023/05/20 02:34:31;;;;;;;4.82;1.73;;;;;;;15.62;52.06;100623.66;10360136;28;20042;-70
2023/05/20 02:39:33;;;;;;;1.58;1.10;;;;;;;15.67;52.31;100623.03;10380095;28;20136;-70
2023/05/20 02:44:34;;;;;;;5.25;1.15;;;;;;;15.75;52.10;100632.88;10364449;28;20516;-70
2023/05/20 02:49:36;;;;;;;3.95;1.50;;;;;;;15.76;52.56;100619.13;10369840;28;20049;-70
2023/05/20 02:54:37;;;;;;;2.75;1.48;;;;;;;15.83;52.27;100624.56;10375611;28;20049;-69
2023/05/20 02:59:39;;;;;;;2.05;0.95;;;;;;;15.84;52.28;100629.78;10383670;28;20530;-70
2023/05/20 03:04:41;;;;;;;3.97;1.40;;;;;;;15.90;52.65;100627.31;10374779;28;20382;-70
2023/05/20 03:09:43;;;;;;;3.92;1.42;;;;;;;15.86;52.74;100616.88;10374049;28;20059;-70
2023/05/20 03:14:44;;;;;;;2.85;1.20;;;;;;;15.88;52.86;100622.09;10377682;28;20080;-69
2023/05/20 03:19:46;;;;;;;1.98;1.27;;;;;;;15.92;52.88;100620.66;10377333;28;20062;-71
2023/05/20 03:24:47;;;;;;;4.75;1.58;;;;;;;15.97;53.04;100614.59;10373898;28;20049;-70
2023/05/20 03:29:50;;;;;;;4.40;1.73;;;;;;;15.94;53.05;100613.13;10379665;28;20080;-70
2023/05/20 03:34:51;;;;;;;5.18;1.40;;;;;;;15.98;53.14;100613.56;10411257;28;20053;-71
2023/05/20 03:39:53;;;;;;;2.63;1.70;;;;;;;16.02;52.91;100612.94;10408493;28;20155;-72
2023/05/20 03:44:54;;;;;;;2.20;1.35;;;;;;;15.98;53.35;100605.44;10410632;28;20065;-72
2023/05/20 03:49:55;;;;;;;3.90;1.73;;;;;;;15.98;53.39;100611.69;10409555;28;20076;-71
2023/05/20 03:54:57;;;;;;;3.28;1.33;;;;;;;15.97;53.41;100614.59;10415994;28;20050;-71
2023/05/20 04:00:01;;;;;;;3.55;1.25;;;;;;;15.96;53.30;100616.47;10420715;28;20065;-71
2023/05/20 04:05:03;;;;;;;3.17;1.45;;;;;;;15.96;53.61;100621.06;10416557;28;20125;-72
2023/05/20 04:10:05;;;;;;;2.05;1.50;;;;;;;16.00;53.55;100625.03;10409868;28;20042;-72
2023/05/20 04:15:07;;;;;;;3.05;1.40;;;;;;;15.98;53.67;100617.13;10408520;28;20683;-71
2023/05/20 04:20:10;;;;;;;3.83;1.50;;;;;;;16.03;53.87;100608.34;10382216;28;20140;-71
2023/05/20 04:25:12;;;;;;;2.67;1.48;;;;;;;16.10;53.54;100611.91;10407976;28;20049;-71
2023/05/20 04:30:16;;;;;;;3.90;1.77;;;;;;;16.11;53.84;100618.16;10413907;28;20104;-72
2023/05/20 04:35:18;;;;;;;3.25;1.83;;;;;;;16.15;53.88;100617.56;10412843;28;20119;-71
2023/05/20 04:40:20;;;;;;;2.03;1.23;;;;;;;16.16;54.07;100621.13;10404147;28;20080;-72
2023/05/20 04:45:22;;;;;;;3.80;1.90;;;;;;;16.10;54.27;100613.81;10419675;28;20124;-72
2023/05/20 04:50:23;;;;;;;4.82;2.10;;;;;;;16.11;54.32;100612.75;10419573;28;20057;-71
2023/05/20 04:55:26;;;;;;;4.78;2.38;;;;;;;16.17;54.16;100606.50;10401424;28;20061;-71
2023/05/20 05:00:27;;;;;;;2.60;2.10;;;;;;;16.23;54.08;100613.81;10417870;28;20372;-72
2023/05/20 05:05:29;;;;;;;2.60;1.95;;;;;;;16.28;54.47;100616.75;10412599;28;20129;-71
2023/05/20 05:10:31;;;;;;;3.90;2.20;;;;;;;16.25;54.45;100611.72;10413425;28;20049;-72
2023/05/20 05:15:33;;;;;;;3.65;2.03;;;;;;;16.33;54.37;100610.69;10393557;28;20512;-72
2023/05/20 05:20:35;;;;;;;2.90;2.22;;;;;;;16.40;54.50;100606.94;10390551;28;20042;-71
2023/05/20 05:25:36;;;;;;;3.28;2.15;;;;;;;16.50;54.43;100589.41;10410697;28;20049;-70
2023/05/20 05:30:38;;;;;;;3.50;1.92;;;;;;;16.60;54.40;100587.09;10411768;28;20046;-71
2023/05/20 05:35:40;;;;;;;4.40;2.10;;;;;;;16.58;54.35;100589.19;10412220;28;20088;-71
2023/05/20 05:40:42;;;;;;;4.70;2.63;;;;;;;16.62;54.58;100601.31;10417203;28;20057;-70
2023/05/20 05:45:43;;;;;;;3.92;2.55;;;;;;;16.77;54.20;100584.81;10420915;28;20122;-71
2023/05/20 05:50:45;;;;;;;2.95;2.47;;;;;;;16.84;54.34;100585.63;10415619;28;20042;-71
2023/05/20 05:55:47;;;;;;;5.13;2.30;;;;;;;17.03;53.83;100573.91;10395545;28;20488;-71
2023/05/20 06:00:53;;;;;;;5.07;3.10;;;;;;;17.11;53.99;100569.31;10416871;28;20056;-72
2023/05/20 06:05:55;;;;;;;4.15;2.63;;;;;;;17.24;53.73;100577.41;10418322;28;20042;-70
2023/05/20 06:10:56;;;;;;;6.13;3.00;;;;;;;17.22;53.87;100580.34;10418463;28;20057;-70
2023/05/20 06:15:58;;;;;;;4.45;3.00;;;;;;;17.32;53.53;100581.75;10409997;28;20464;-70
2023/05/20 06:20:59;;;;;;;3.88;3.10;;;;;;;17.35;53.72;100575.91;10409029;28;20057;-71
2023/05/20 06:26:01;;;;;;;5.65;3.03;;;;;;;17.38;53.61;100575.47;10405799;28;20053;-72
2023/05/20 06:31:02;;;;;;;4.53;3.88;;;;;;;17.39;53.95;100574.41;10408333;28;20048;-71
2023/05/20 06:36:04;;;;;;;8.98;3.67;;;;;;;17.36;54.14;100570.25;10400330;28;20969;-71
2023/05/20 06:41:05;;;;;;;5.38;2.95;;;;;;;17.38;53.76;100580.91;10396445;28;20045;-71
2023/05/20 06:46:07;;;;;;;6.95;3.90;;;;;;;17.47;53.77;100570.63;10383186;28;20044;-71
2023/05/20 06:51:09;;;;;;;3.85;3.30;;;;;;;17.53;53.48;100562.44;10394174;28;20108;-76
2023/05/20 06:56:10;;;;;;;4.55;3.67;;;;;;;17.51;53.51;100569.97;10376495;28;20061;-75
2023/05/20 07:01:12;;;;;;;6.07;4.03;;;;;;;17.59;53.59;100568.88;10377573;28;20145;-75
2023/05/20 07:06:14;;;;;;;5.35;3.70;;;;;;;17.72;53.33;100559.84;10377750;28;20056;-76
2023/05/20 07:11:17;;;;;;;5.28;3.83;;;;;;;17.84;52.97;100566.28;10379420;28;20054;-75
2023/05/20 07:16:18;;;;;;;8.25;4.20;;;;;;;17.96;52.87;100567.25;10384150;28;20053;-75
2023/05/20 07:21:19;;;;;;;4.93;4.07;;;;;;;18.04;52.79;100563.41;10384879;28;20479;-75
2023/05/20 07:26:21;;;;;;;7.10;4.57;;;;;;;18.24;52.67;100555.94;10376895;28;20050;-75
2023/05/20 07:31:23;;;;;;;6.88;4.68;;;;;;;18.27;52.67;100554.69;10377383;28;20536;-74
2023/05/20 07:36:28;;;;;;;8.77;4.80;;;;;;;18.49;51.83;100554.28;10379520;28;20129;-74
2023/05/20 07:41:29;;;;;;;6.97;4.63;;;;;;;18.71;51.66;100554.69;10360880;28;20054;-75
2023/05/20 07:46:31;;;;;;;7.03;4.32;;;;;;;18.73;51.73;100534.34;10377857;28;20087;-61
2023/05/20 07:51:32;;;;;;;8.60;4.97;;;;;;;18.99;51.30;100543.31;10377741;28;20046;-61
2023/05/20 07:56:34;;;;;;;4.78;4.30;;;;;;;19.12;51.15;100539.63;10376717;28;20413;-60
2023/05/20 08:01:36;;;;;;;8.05;5.68;;;;;;;19.26;50.82;100535.66;10377050;28;20057;-60
2023/05/20 08:06:38;;;;;;;8.05;5.00;;;;;;;19.04;51.31;100521.69;10375490;28;20083;-59
2023/05/20 08:11:39;;;;;;;6.82;5.03;;;;;;;19.21;50.81;100532.78;10381868;28;20519;-61
2023/05/20 08:16:42;;;;;;;5.93;5.20;;;;;;;19.22;50.79;100529.84;10380454;28;20048;-60
2023/05/20 08:21:43;;;;;;;6.28;4.60;;;;;;;19.31;50.73;100530.38;10378915;28;20073;-61
2023/05/20 08:26:45;;;;;;;7.30;5.05;;;;;;;19.31;50.82;100530.38;10380226;28;20049;-61
2023/05/20 08:31:46;;;;;;;8.50;5.72;;;;;;;19.33;50.92;100530.13;10378140;28;20052;-62
2023/05/20 08:36:48;;;;;;;8.32;5.65;;;;;;;19.47;50.41;100520.72;10379433;28;20485;-62
2023/05/20 08:41:49;;;;;;;8.50;6.05;;;;;;;19.45;50.61;100517.41;10375200;28;20061;-62
2023/05/20 08:46:51;;;;;;;8.50;5.25;;;;;;;19.58;50.46;100500.00;10383277;28;20046;-60
2023/05/20 08:51:53;;;;;;;9.00;5.63;;;;;;;19.53;50.65;100502.59;10379020;28;20061;-61
2023/05/20 08:56:55;;;;;;;13.32;6.15;;;;;;;19.85;50.32;100500.47;10381534;28;20389;-61
2023/05/20 09:01:57;;;;;;;8.35;5.03;;;;;;;20.28;49.80;100510.28;10378263;28;20057;-74
2023/05/20 09:06:59;;;;;;;5.55;5.05;;;;;;;20.71;49.13;100502.81;10375066;28;20127;-74
2023/05/20 09:12:02;;;;;;;8.13;5.75;;;;;;;20.66;48.79;100509.00;10379522;28;20045;-76
2023/05/20 09:17:04;;;;;;;6.13;4.80;;;;;;;20.76;48.83;100508.41;10379105;28;20045;-75
2023/05/20 09:22:06;;;;;;;7.15;5.03;;;;;;;21.00;48.47;100503.72;10379082;28;20061;-75
2023/05/20 09:27:09;;;;;;;9.52;5.45;;;;;;;20.75;48.36;100496.66;10379707;28;20050;-74
2023/05/20 09:32:12;;;;;;;8.13;5.05;;;;;;;20.60;48.73;100499.84;10382060;28;20384;-75
2023/05/20 09:37:20;;;;;;;6.78;5.07;;;;;;;20.63;48.87;100489.53;10381066;28;20042;-74
2023/05/20 09:42:27;;;;;;;10.18;5.10;;;;;;;20.85;48.52;100479.59;10382898;28;20049;-74
2023/05/20 09:47:30;;;;;;;7.25;5.25;;;;;;;21.08;48.11;100481.47;10359568;28;20928;-75
2023/05/20 09:52:33;;;;;;;5.28;4.50;;;;;;;21.33;48.17;100485.78;10370867;28;20049;-75
2023/05/20 09:57:35;;;;;;;5.13;4.72;;;;;;;21.59;47.31;100479.72;10380870;28;20047;-75
2023/05/20 10:02:37;;;;;;;5.95;5.13;;;;;;;21.91;47.32;100490.13;10385804;28;20088;-66
2023/05/20 10:08:09;;;;;;;7.78;5.07;;;;;;;22.12;46.46;100485.00;10382329;28;20096;-66
2023/05/20 10:13:18;;;;;;;9.55;5.30;;;;;;;22.33;46.14;100472.47;10377835;28;20049;-66
2023/05/20 10:18:54;;;;;;;9.32;4.93;;;;;;;22.41;45.71;100473.97;10380984;28;20066;-66
2023/05/20 10:24:08;;;;;;;6.70;5.00;;;;;;;22.52;45.30;100484.00;10383421;28;20494;-66
2023/05/20 10:29:19;;;;;;;7.15;4.95;;;;;;;22.66;45.06;100471.59;10381247;28;20057;-65
2023/05/20 10:34:21;;;;;;;6.40;5.03;;;;;;;22.73;44.49;100474.97;10385583;28;20042;-64
2023/05/20 10:39:34;;;;;;;7.38;4.72;;;;;;;22.96;44.23;100479.38;10381756;28;20583;-65
2023/05/20 10:44:43;;;;;;;7.40;4.80;;;;;;;23.62;42.76;100477.66;10380989;28;20049;-65
2023/05/20 10:49:45;;;;;;;7.35;4.30;;;;;;;24.14;42.08;100471.56;10379967;28;20077;-65
2023/05/20 10:54:55;;;;;;;6.18;5.05;;;;;;;24.11;41.83;100466.56;10376979;28;20382;-65
2023/05/20 10:59:57;;;;;;;5.82;4.40;;;;;;;24.03;41.51;100459.66;10375052;28;20050;-66
2023/05/20 11:04:59;;;;;;;5.68;4.68;;;;;;;23.92;41.50;100453.25;10370601;28;20068;-66
2023/05/20 11:10:01;;;;;;;4.72;3.88;;;;;;;23.73;41.72;100451.97;10374628;28;20144;-66
2023/05/20 11:15:02;;;;;;;6.47;4.82;;;;;;;23.56;42.00;100441.94;10384046;28;20440;-68
2023/05/20 11:20:04;;;;;;;5.75;5.05;;;;;;;23.56;41.92;100438.38;10380587;28;20049;-66
2023/05/20 11:25:06;;;;;;;5.10;4.60;;;;;;;23.32;42.14;100432.34;10381415;28;20437;-69
2023/05/20 11:30:10;;;;;;;7.30;4.63;;;;;;;23.54;41.75;100432.31;10377336;28;20060;-68
2023/05/20 11:35:24;;;;;;;5.20;4.35;;;;;;;23.51;41.84;100443.81;10378969;28;20056;-69
2023/05/20 11:40:26;;;;;;;7.18;4.53;;;;;;;23.27;42.15;100435.06;10385518;28;20049;-67
2023/05/20 11:45:44;;;;;;;6.45;4.28;;;;;;;23.52;42.13;100434.50;10377670;28;20052;-66
2023/05/20 11:50:47;;;;;;;;;;;;;;;23.73;42.01;100430.00;10380330;28;20060;-66
2023/05/20 11:55:56;;;;;;;6.53;5.43;;;;;;;23.81;41.98;100429.53;10381856;28;19975;-67
2023/05/20 12:00:58;;;;;;;5.53;4.68;;;;;;;23.94;41.57;100418.13;10360834;28;20123;-67
2023/05/20 12:06:15;;;;;;;5.82;5.20;;;;;;;24.02;41.77;100389.34;10374794;28;20069;-69
2023/05/20 12:11:17;;;;;;;6.63;5.28;;;;;;;24.38;41.15;100417.03;10380752;28;20127;-68
2023/05/20 12:16:18;;;;;;;7.28;4.85;;;;;;;24.41;40.78;100412.91;10377435;28;20041;-68
2023/05/20 12:21:20;;;;;;;8.20;5.95;;;;;;;24.69;40.54;100409.78;10376274;28;20346;-69
2023/05/20 12:26:23;;;;;;;6.57;5.80;;;;;;;24.69;40.48;100395.22;10372004;28;20061;-70
2023/05/20 12:31:24;;;;;;;7.35;5.65;;;;;;;24.65;40.13;100399.59;10377139;28;20045;-71
2023/05/20 12:36:26;;;;;;;6.70;6.00;;;;;;;24.66;39.72;100399.31;10371443;28;20126;-71
2023/05/20 12:41:28;;;;;;;8.65;6.57;;;;;;;24.62;40.06;100402.88;10374420;28;20056;-69
2023/05/20 12:46:29;;;;;;;8.88;7.32;;;;;;;24.40;40.52;100405.78;10379198;28;20124;-69
2023/05/20 12:51:31;;;;;;;8.60;6.68;;;;;;;24.56;40.28;100396.53;10372242;28;20053;-69
2023/05/20 12:56:32;;;;;;;14.75;6.53;;;;;;;25.02;39.48;100399.47;10378115;28;20038;-70
2023/05/20 13:01:33;;;;;;;7.90;7.10;;;;;;;25.04;39.11;100396.41;10380817;28;20053;-69
2023/05/20 13:06:35;;;;;;;9.27;6.20;;;;;;;24.99;39.00;100380.72;10359968;28;20056;-67
2023/05/20 13:11:37;;;;;;;10.60;6.30;;;;;;;25.11;39.06;100375.81;10381719;28;20068;-69
2023/05/20 13:16:38;;;;;;;7.90;6.18;;;;;;;25.29;38.68;100363.47;10381569;28;20057;-70
2023/05/20 13:21:40;;;;;;;5.97;5.22;;;;;;;25.38;38.81;100361.03;10382830;28;20056;-70
2023/05/20 13:26:41;;;;;;;6.15;4.97;;;;;;;25.61;37.90;100358.81;10380802;28;20137;-71
2023/05/20 13:31:43;;;;;;;7.03;6.32;;;;;;;26.23;36.77;100359.56;10364415;28;20148;-72
2023/05/20 13:36:46;;;;;;;7.32;5.70;;;;;;;26.29;36.74;100366.72;10382492;28;20061;-71
2023/05/20 13:41:48;;;;;;;7.28;5.97;;;;;;;26.30;36.64;100362.84;10361984;28;20056;-70
2023/05/20 13:46:49;;;;;;;7.38;5.40;;;;;;;26.34;36.89;100346.56;10382885;28;20049;-69
2023/05/20 13:51:51;;;;;;;7.07;5.88;;;;;;;26.23;36.52;100348.53;10381915;28;20057;-70
2023/05/20 13:56:52;;;;;;;6.03;5.43;;;;;;;26.56;36.27;100337.91;10380024;28;20045;-69
2023/05/20 14:01:54;;;;;;;6.70;5.60;;;;;;;26.34;37.16;100324.50;10375216;28;20058;-71
2023/05/20 14:06:56;;;;;;;6.85;5.75;;;;;;;27.09;35.78;100319.72;10363598;28;20108;-69
2023/05/20 14:11:57;;;;;;;10.77;6.20;;;;;;;27.30;35.86;100327.84;10381550;28;20054;-77
2023/05/20 14:16:59;;;;;;;6.72;5.28;;;;;;;27.39;35.50;100328.06;10401769;28;20050;-79
2023/05/20 14:22:00;;;;;;;7.15;5.13;;;;;;;27.45;35.04;100313.13;10409321;28;20030;-79
2023/05/20 14:27:02;;;;;;;5.85;5.30;;;;;;;27.42;35.42;100314.50;10399287;28;20030;-78
2023/05/20 14:32:04;;;;;;;7.80;5.60;;;;;;;27.39;35.32;100311.47;10472247;22;20049;-79
2023/05/20 14:37:08;;;;;;;6.97;5.43;;;;;;;27.94;34.46;100303.78;10372140;28;20077;-80
2023/05/20 14:42:11;;;;;;;6.53;5.43;;;;;;;28.40;33.99;100289.41;11078301;22;20069;-77
2023/05/20 14:47:17;;;;;;;9.13;5.05;;;;;;;27.82;34.30;100292.28;10507340;22;20053;-79
2023/05/20 14:52:19;;;;;;;6.80;5.82;;;;;;;28.00;34.07;100294.34;10728287;23;20061;-80
2023/05/20 14:57:21;;;;;;;6.10;5.38;;;;;;;27.65;34.41;100277.00;10411951;28;20032;-77
2023/05/20 15:02:22;;;;;;;7.30;5.40;;;;;;;27.80;34.29;100292.56;10486673;23;20105;-79
2023/05/20 15:07:24;;;;;;;5.95;4.63;;;;;;;27.39;35.01;100283.88;10854544;22;20505;-79
2023/05/20 15:12:25;;;;;;;6.38;5.13;;;;;;;27.45;34.71;100296.53;10384443;28;20039;-79
2023/05/20 15:22:46;;;;;;;6.65;4.97;;;;;;;27.17;35.49;100296.16;11759871;22;20052;-78
2023/05/20 15:27:48;;;;;;;5.85;5.25;;;;;;;26.84;35.98;100286.78;10401564;28;20116;-76
2023/05/20 15:32:49;;;;;;;6.47;5.28;;;;;;;26.94;35.68;100283.94;10630094;22;20121;-77
2023/05/20 15:37:51;;;;;;;7.60;6.10;;;;;;;26.97;35.92;100269.56;10577309;22;20077;-78
2023/05/20 15:43:09;;;;;;;6.65;5.68;;;;;;;27.03;35.27;100270.34;10585339;22;20489;-78
2023/05/20 15:48:11;;;;;;;6.80;6.20;;;;;;;26.96;35.47;100273.44;10615461;22;20075;-76
2023/05/20 15:53:20;;;;;;;5.93;5.32;;;;;;;26.68;36.08;100264.81;10608832;22;20036;31
2023/05/20 15:58:21;;;;;;;6.90;5.28;;;;;;;26.59;36.19;100261.00;10665299;22;20046;-76
2023/05/20 16:03:23;;;;;;;9.20;5.57;;;;;;;26.76;35.56;100252.34;10785161;22;20054;-78
2023/05/20 16:08:28;;;;;;;7.40;5.28;;;;;;;26.85;35.76;100255.31;11556461;23;20056;-78
2023/05/20 16:13:30;;;;;;;7.57;5.47;;;;;;;26.55;36.33;100254.38;10864019;22;20081;-77
2023/05/20 16:18:31;;;;;;;8.32;5.38;;;;;;;26.64;35.63;100268.41;10983613;23;20053;-76
2023/05/20 16:23:33;;;;;;;6.43;5.30;;;;;;;26.29;36.33;100273.81;10446594;23;20038;-77
2023/05/20 16:28:35;;;;;;;6.63;5.40;;;;;;;26.04;36.67;100274.75;10376010;28;20054;-75
2023/05/20 16:33:36;;;;;;;6.95;5.45;;;;;;;25.86;37.26;100259.63;10379290;28;20057;-76
2023/05/20 16:38:38;;;;;;;7.70;5.05;;;;;;;25.73;37.62;100254.69;10373422;28;20183;-78
2023/05/20 16:43:39;;;;;;;5.60;5.07;;;;;;;25.86;37.47;100256.06;10378125;28;20060;-77
2023/05/20 16:48:44;;;;;;;7.50;5.50;;;;;;;25.65;37.57;100252.53;10995005;23;20049;-77
2023/05/20 16:59:17;;;;;;;6.75;6.07;;;;;;;24.99;39.23;100261.66;11519262;23;20085;-77
2023/05/20 17:15:09;;;;;;;7.75;6.47;;;;;;;24.23;40.31;100272.19;10681705;23;20081;-77
2023/05/20 17:20:11;;;;;;;7.93;7.13;;;;;;;23.89;41.24;100278.03;10107425;29;20316;-76
2023/05/20 17:25:13;;;;;;;10.25;7.22;;;;;;;23.78;41.61;100278.28;10087559;29;20108;-76
2023/05/20 17:30:15;;;;;;;8.77;7.72;;;;;;;23.55;42.32;100288.50;10080183;29;20098;-76
2023/05/20 17:35:19;;;;;;;13.00;8.57;;;;;;;23.37;42.61;100287.00;10277053;23;20569;-76
2023/05/20 17:40:20;;;;;;;9.55;8.07;;;;;;;23.12;43.42;100285.72;10103977;29;20148;-76
2023/05/20 17:45:22;;;;;;;17.05;9.60;;;;;;;22.86;43.91;100292.03;10101002;29;20552;-76
2023/05/20 17:50:23;;;;;;;9.23;7.47;;;;;;;22.75;44.35;100293.84;10727480;24;20771;-76
2023/05/20 17:55:27;;;;;;;9.27;8.05;;;;;;;22.49;44.79;100299.03;10083482;29;20041;-75
2023/05/20 18:00:29;;;;;;;11.52;8.45;;;;;;;22.11;45.99;100300.72;10080371;29;20072;-75
2023/05/20 18:10:47;;;;;;;12.75;8.88;;;;;;;21.91;46.34;100312.22;11003071;23;20076;-75
2023/05/20 18:15:49;;;;;;;12.57;9.20;;;;;;;21.76;46.73;100314.72;10529394;23;20038;-75
2023/05/20 18:20:50;;;;;;;12.20;8.90;;;;;;;21.76;46.91;100314.72;10058643;29;20060;-74
2023/05/20 18:25:52;;;;;;;10.45;8.23;;;;;;;21.67;47.43;100302.56;10559100;23;20121;-74
2023/05/20 18:36:06;;;;;;;16.17;11.02;;;;;;;21.29;48.35;100301.41;10709557;23;21012;-75
2023/05/20 18:41:07;;;;;;;13.20;8.93;;;;;;;21.14;48.68;100296.50;10199246;23;20107;-74
2023/05/20 18:46:09;;;;;;;15.68;10.00;;;;;;;21.07;48.88;100309.50;10123535;29;20059;-75
2023/05/20 18:51:10;;;;;;;13.25;9.55;;;;;;;20.94;49.60;100306.00;10172318;23;20040;-74
2023/05/20 18:56:12;;;;;;;17.35;10.73;;;;;;;20.77;49.74;100316.06;10106498;29;21086;-74
2023/05/20 19:01:14;;;;;;;16.80;11.65;;;;;;;20.63;50.34;100304.59;10113893;29;20056;-75
2023/05/20 19:11:32;;;;;;;15.57;10.65;;;;;;;20.37;51.37;100305.97;10105058;23;20150;-75
2023/05/20 19:16:33;;;;;;;14.13;10.38;;;;;;;20.27;51.09;100306.59;10068182;29;20049;-76
2023/05/20 19:21:38;;;;;;;16.63;10.70;;;;;;;20.13;51.89;100305.19;10092792;29;20049;-74
2023/05/20 19:26:39;;;;;;;16.63;11.57;;;;;;;20.05;52.20;100303.66;10086127;29;20651;-73
2023/05/20 19:31:42;;;;;;;14.88;10.70;;;;;;;19.94;52.45;100302.59;10108899;29;20135;-74
2023/05/20 19:36:44;;;;;;;14.77;11.90;;;;;;;19.84;52.94;100302.38;10103201;29;20056;-74
2023/05/20 19:41:47;;;;;;;13.68;11.70;;;;;;;19.76;52.89;100317.22;10099915;29;20105;-74
2023/05/20 19:46:48;;;;;;;15.82;12.32;;;;;;;19.71;53.12;100308.94;10108493;29;20045;-76
2023/05/20 19:51:50;;;;;;;15.43;10.93;;;;;;;19.66;53.60;100314.22;10121225;23;20164;-74
2023/05/20 19:56:51;;;;;;;19.35;13.13;;;;;;;19.63;53.66;100314.72;10111593;29;20053;-74
2023/05/20 20:01:53;;;;;;;21.05;11.75;;;;;;;19.56;54.01;100316.72;10096319;29;20394;-75
2023/05/20 20:06:55;;;;;;;14.68;10.82;;;;;;;19.49;54.24;100305.94;10116962;29;20442;-74
2023/05/20 20:11:56;;;;;;;13.65;10.60;;;;;;;19.41;54.58;100314.44;10111797;29;20117;-75
2023/05/20 20:16:58;;;;;;;18.00;11.27;;;;;;;19.38;54.61;100315.75;10118042;29;20056;-75
2023/05/20 20:22:00;;;;;;;18.60;11.45;;;;;;;19.35;54.80;100309.91;10114945;29;20043;-74
2023/05/20 20:27:01;;;;;;;16.55;11.20;;;;;;;19.27;55.18;100304.81;10111131;29;20068;-75
2023/05/20 20:32:03;;;;;;;14.18;10.75;;;;;;;19.26;55.18;100300.44;10108935;29;20051;-75
2023/05/20 20:37:05;;;;;;;16.05;11.27;;;;;;;19.17;55.45;100294.50;10216587;23;20051;-75
2023/05/20 20:42:07;;;;;;;16.27;10.88;;;;;;;19.17;55.23;100302.66;10062603;29;20108;-75
2023/05/20 20:47:08;;;;;;;16.73;11.73;;;;;;;19.18;55.52;100305.16;10031720;29;20042;-74
2023/05/20 20:52:11;;;;;;;14.90;10.02;;;;;;;19.09;55.80;100306.56;10043447;29;20101;-74
2023/05/20 20:57:12;;;;;;;15.32;10.98;;;;;;;19.09;55.76;100284.75;10034791;29;20054;-75
2023/05/20 21:02:14;;;;;;;15.35;9.75;;;;;;;19.02;56.04;100290.31;10032884;29;20049;-75
2023/05/20 21:07:18;;;;;;;14.80;10.90;;;;;;;19.02;56.18;100275.88;10042557;29;20055;-72
2023/05/20 21:12:20;;;;;;;15.50;10.23;;;;;;;19.02;55.99;100271.25;10022756;29;20179;-71
2023/05/20 21:17:22;;;;;;;14.55;10.07;;;;;;;18.99;56.01;100263.53;10030569;29;20064;-72
2023/05/20 21:22:23;;;;;;;14.85;10.13;;;;;;;18.95;56.25;100261.50;10035123;29;20041;-72
2023/05/20 21:27:25;;;;;;;15.52;10.32;;;;;;;18.86;56.58;100266.47;10036021;29;20589;-72
2023/05/20 21:32:26;;;;;;;14.30;10.68;;;;;;;18.85;56.61;100264.81;10024798;29;20046;-72
2023/05/20 21:37:28;;;;;;;17.73;10.30;;;;;;;18.85;56.53;100263.97;10037628;29;20084;-70
2023/05/20 21:42:29;;;;;;;14.35;10.35;;;;;;;18.77;56.95;100255.03;10020574;29;20046;-70
2023/05/20 21:47:31;;;;;;;14.80;10.13;;;;;;;18.79;56.64;100252.09;10024797;29;20068;-71
2023/05/20 21:52:32;;;;;;;13.45;9.80;;;;;;;18.76;56.89;100258.00;10028619;29;20050;-72
2023/05/20 21:57:34;;;;;;;17.10;11.15;;;;;;;18.72;57.02;100254.94;10031278;29;20783;-71
2023/05/20 22:02:36;;;;;;;15.27;9.65;;;;;;;18.73;57.22;100237.50;10031735;29;20719;-71
2023/05/20 22:07:42;;;;;;;16.73;9.55;;;;;;;18.76;56.91;100239.78;10031234;29;20735;-72
2023/05/20 22:12:43;;;;;;;15.48;9.85;;;;;;;18.74;56.95;100238.31;10018833;29;20144;-71
2023/05/20 22:17:46;;;;;;;12.80;8.85;;;;;;;18.69;57.04;100233.59;10020420;29;20045;-71
2023/05/20 22:22:47;;;;;;;15.45;9.60;;;;;;;18.70;57.14;100231.69;10032220;29;20060;-72
2023/05/20 22:27:49;;;;;;;17.10;10.45;;;;;;;18.69;57.07;100221.88;10016852;29;20528;-71
2023/05/20 22:32:51;;;;;;;13.13;9.18;;;;;;;18.66;57.38;100215.00;10017867;29;20052;-71
2023/05/20 22:37:53;;;;;;;15.27;9.57;;;;;;;18.62;57.20;100208.34;10015613;29;20045;-73
2023/05/20 22:42:55;;;;;;;13.18;9.25;;;;;;;18.61;57.36;100203.97;10022607;29;20076;-73
2023/05/20 22:47:56;;;;;;;16.65;9.30;;;;;;;18.59;57.23;100206.09;10025107;29;20060;-72
2023/05/20 22:52:58;;;;;;;13.55;9.20;;;;;;;18.54;57.43;100200.50;10031822;29;20098;-73
2023/05/20 22:57:59;;;;;;;14.98;8.80;;;;;;;18.51;57.55;100190.94;10034104;29;20374;-72
2023/05/20 23:03:01;;;;;;;15.75;9.13;;;;;;;18.47;57.59;100186.19;10027375;29;20426;-73
2023/05/20 23:08:02;;;;;;;14.02;8.55;;;;;;;18.41;57.62;100186.03;10032324;29;20063;-72
2023/05/20 23:13:04;;;;;;;15.85;8.85;;;;;;;18.44;57.68;100184.75;10034081;29;20668;-71
2023/05/20 23:18:05;;;;;;;19.45;10.48;;;;;;;18.39;57.67;100174.56;10023262;29;20049;-71
2023/05/20 23:23:07;;;;;;;14.10;9.02;;;;;;;18.36;57.95;100172.28;10035931;29;20102;-69
2023/05/20 23:28:12;;;;;;;14.20;9.70;;;;;;;18.33;57.69;100158.34;10034031;29;20506;-69
2023/05/20 23:33:13;;;;;;;14.75;9.18;;;;;;;18.32;57.92;100160.22;10030414;29;20049;-70
2023/05/20 23:38:15;;;;;;;14.73;9.68;;;;;;;18.29;58.38;100165.31;10012902;29;20068;-69
2023/05/20 23:43:17;;;;;;;12.85;9.18;;;;;;;18.25;58.41;100162.22;10035520;29;20050;-70